Wynot, NE (68792)

3:05 PM CST on February 12, 2016 (GMT -0600)
IEM | | Change Station
CLOSE
Current Station
Personal Weather Station
Location: Vermillion, SD
Elevation: 1223 ft
Nearby Weather Stations

Elev 1223 ft 42.78 °N, 96.93 °W | Updated 18 minutes ago

Clear
Clear
16 °F
Feels Like 16 °F
N
3
Wind Variable Wind from NNE
Gusts 0.0 mph

Today
High -- | Low -- °F
--% Chance of Precip.
Yesterday
High -- | Low -- °F
Precip. -- in
Pressure 30.58 in
Visibility 10.0 miles
Clouds Clear
Windchill 16 °F
Dew Point 5 °F
Humidity 62%
Rainfall in
Snow Depth Not available.
7:30 AM 5:55 PM
Waxing Crescent, 23% visible
METAR KYKN 122055Z AUTO 34010KT 10SM CLR M09/M16 A3058 RMK AO1 52003
Pressure 30.58 in
Visibility 10.0 miles
Clouds Clear
Windchill 16 °F
Dew Point 5 °F
Humidity 62%
Rainfall in
Snow Depth Not available.
7:30 AM 5:55 PM
Waxing Crescent, 23% visible
METAR KYKN 122055Z AUTO 34010KT 10SM CLR M09/M16 A3058 RMK AO1 52003

10-Day Weather Forecast

Almanac

Astronomy

Feb. 12, 2016 Rise Set
Actual Time
Civil Twilight
Nautical Twilight
Astronomical Twilight
Moon
Length of Visible Light
Length of Day
Tomorrow will be .
, % of the Moon is Illuminated

Today's Extremes

State Highs State Lows

Community

WunderPhotos

Upload Photos

1,892,397 photos uploaded!

WunderBlog® & News

Nearby

Air Quality

  Air Quality AQ Index Pollutant
Not available.

Snow Depth

Station Depth Elevation

Earthquake Activity

City Distance Mag. Time & Date
Minimum magnitude displayed is 2.5.

Coastal Water Temperatures

Place Temperature

Stations

Nearby Weather Stations

Station Location Temp. Windchill Dew Point Humidity Wind Precip. Elev Updated Type
                   

Watches & Warnings

There are currently no watches in effect.